createdAt,value
2019-04-22T00:01:40.033Z,4.03
2019-04-22T00:04:16.257Z,3.93
2019-04-22T00:07:04.294Z,3.90
2019-04-22T00:09:39.974Z,4.43
2019-04-22T00:12:13.782Z,4.23
2019-04-22T00:14:38.693Z,3.83
2019-04-22T00:17:19.880Z,3.33
2019-04-22T00:19:55.530Z,3.77
2019-04-22T00:24:51.172Z,3.43
2019-04-22T00:27:29.462Z,3.50
2019-04-22T00:32:37.008Z,3.67
2019-04-22T00:35:07.248Z,3.37
2019-04-22T00:37:43.840Z,3.40
2019-04-22T00:40:14.356Z,3.70
2019-04-22T00:42:47.644Z,4.20
2019-04-22T00:45:19.086Z,4.37
2019-04-22T00:47:43.782Z,4.27
2019-04-22T00:52:59.833Z,3.40
2019-04-22T00:55:26.921Z,3.77
2019-04-22T00:57:58.083Z,3.33
2019-04-22T01:00:24.750Z,3.40
2019-04-22T01:03:07.484Z,3.93
2019-04-22T01:05:34.424Z,4.20
2019-04-22T01:08:09.110Z,3.17
2019-04-22T01:10:40.535Z,3.47
2019-04-22T01:13:08.138Z,3.70
2019-04-22T01:15:40.179Z,3.33
2019-04-22T01:18:09.341Z,3.67
2019-04-22T01:21:00.506Z,3.67
2019-04-22T01:23:14.744Z,3.67
2019-04-22T01:25:43.206Z,4.17
2019-04-22T01:28:09.514Z,3.70
2019-04-22T01:30:35.027Z,4.07
2019-04-22T01:33:06.816Z,4.40
2019-04-22T01:35:46.119Z,3.93
2019-04-22T01:38:22.345Z,3.77
2019-04-22T01:41:21.639Z,3.60
2019-04-22T01:43:56.283Z,3.83
2019-04-22T01:46:36.716Z,4.67
2019-04-22T01:49:10.057Z,3.80
2019-04-22T01:51:45.779Z,3.37
2019-04-22T01:54:15.089Z,3.57
2019-04-22T01:56:41.155Z,3.30
2019-04-22T01:59:07.400Z,3.50
2019-04-22T02:04:19.141Z,3.90
2019-04-22T02:06:49.603Z,3.27
2019-04-22T02:09:22.483Z,3.53
2019-04-22T02:12:11.581Z,4.93
2019-04-22T02:14:20.683Z,4.17
2019-04-22T02:16:56.149Z,4.27
2019-04-22T02:19:30.777Z,4.10
2019-04-22T02:21:54.140Z,3.90
2019-04-22T02:24:33.408Z,4.27
2019-04-22T02:27:09.183Z,3.97
2019-04-22T02:29:37.275Z,3.07
2019-04-22T02:32:19.362Z,4.33
2019-04-22T02:34:39.608Z,3.40
2019-04-22T02:37:13.073Z,4.40
2019-04-22T02:39:42.787Z,4.40
2019-04-22T02:44:46.709Z,5.07
2019-04-22T02:49:47.064Z,4.90
2019-04-22T02:52:26.172Z,3.83
2019-04-22T02:55:00.399Z,3.87
2019-04-22T02:57:30.173Z,4.20
2019-04-22T03:02:54.601Z,3.97
2019-04-22T03:05:07.490Z,4.50
2019-04-22T03:07:31.828Z,4.13
2019-04-22T03:10:12.257Z,3.93
2019-04-22T03:12:33.234Z,3.67
2019-04-22T03:14:59.914Z,3.90
2019-04-22T03:22:52.060Z,3.10
2019-04-22T03:25:43.845Z,3.67
2019-04-22T03:27:40.230Z,3.77
2019-04-22T03:30:47.625Z,4.17
2019-04-22T03:33:11.843Z,4.57
2019-04-22T03:37:56.238Z,3.83
2019-04-22T03:40:47.249Z,3.57
2019-04-22T03:43:14.276Z,4.57
2019-04-22T03:48:08.025Z,4.17
2019-04-22T03:53:15.017Z,4.00
2019-04-22T03:55:43.426Z,3.60
2019-04-22T03:58:10.573Z,3.63
2019-04-22T04:01:13.758Z,4.00
2019-04-22T04:05:54.114Z,3.10
2019-04-22T04:10:53.577Z,3.53
2019-04-22T04:13:30.458Z,3.97
2019-04-22T04:15:57.737Z,3.70
2019-04-22T04:18:39.239Z,4.27
2019-04-22T04:33:53.905Z,4.30
2019-04-22T04:36:32.584Z,3.70
2019-04-22T04:46:53.932Z,4.27
2019-04-22T04:49:09.336Z,4.80
2019-04-22T05:01:44.881Z,4.33
2019-04-22T05:06:51.291Z,4.63
2019-04-22T05:09:21.326Z,5.47
2019-04-22T05:16:54.617Z,5.30
2019-04-22T05:19:20.724Z,3.77
2019-04-22T05:21:53.312Z,4.23
2019-04-22T05:24:40.469Z,4.60
2019-04-22T05:27:02.115Z,4.27
2019-04-22T05:29:32.873Z,4.60
2019-04-22T05:31:57.036Z,4.00
2019-04-22T05:34:40.212Z,5.00
2019-04-22T05:37:05.290Z,4.73
2019-04-22T05:39:28.353Z,4.40
2019-04-22T05:42:03.103Z,4.10
2019-04-22T05:44:39.568Z,5.60
2019-04-22T05:47:08.437Z,3.90
2019-04-22T05:49:35.038Z,5.13
2019-04-22T05:52:09.665Z,4.37
2019-04-22T05:54:38.671Z,3.77
2019-04-22T05:57:19.301Z,5.03
2019-04-22T05:59:51.994Z,4.07
2019-04-22T06:04:54.936Z,4.30
2019-04-22T06:07:22.936Z,4.10
2019-04-22T06:10:03.046Z,4.27
2019-04-22T06:12:23.372Z,4.30
2019-04-22T06:15:01.119Z,5.33
2019-04-22T06:17:31.277Z,4.47
2019-04-22T06:20:07.568Z,3.80
2019-04-22T06:22:51.020Z,4.37
2019-04-22T06:25:17.799Z,4.33
2019-04-22T06:27:41.420Z,4.55
2019-04-22T06:30:12.731Z,4.67
2019-04-22T06:32:42.222Z,3.98
2019-04-22T06:35:23.594Z,4.05
2019-04-22T06:37:54.959Z,4.62
2019-04-22T06:40:19.823Z,4.90
2019-04-22T06:42:56.578Z,4.08
2019-04-22T06:45:19.271Z,4.85
2019-04-22T06:47:59.183Z,4.22
2019-04-22T06:50:24.498Z,4.25
2019-04-22T06:52:56.692Z,3.70
2019-04-22T06:55:32.994Z,4.17
2019-04-22T06:58:00.347Z,4.45
2019-04-22T07:00:32.427Z,4.60
2019-04-22T07:03:28.721Z,4.67
2019-04-22T07:08:18.277Z,4.17
2019-04-22T07:10:43.665Z,4.80
2019-04-22T07:13:11.268Z,4.33
2019-04-22T07:15:50.357Z,3.58
2019-04-22T07:18:18.036Z,3.52
2019-04-22T07:20:50.835Z,4.08
2019-04-22T07:23:25.841Z,4.25
2019-04-22T07:25:49.642Z,3.70
2019-04-22T07:28:20.277Z,3.47
2019-04-22T07:30:53.423Z,3.47
2019-04-22T07:36:32.158Z,3.02
2019-04-22T07:38:26.971Z,3.85
2019-04-22T07:40:56.316Z,5.00
2019-04-22T07:46:05.179Z,3.45
2019-04-22T07:48:43.302Z,3.58
2019-04-22T07:51:10.062Z,2.75
2019-04-22T07:53:33.808Z,3.42
2019-04-22T07:56:16.140Z,3.12
2019-04-22T07:58:42.091Z,2.98
2019-04-22T08:01:15.674Z,3.02
2019-04-22T08:03:58.704Z,2.80
2019-04-22T08:06:17.521Z,2.92
2019-04-22T08:08:58.410Z,2.45
2019-04-22T08:11:37.441Z,3.33
2019-04-22T08:13:46.653Z,2.75
2019-04-22T08:16:24.950Z,2.60
2019-04-22T08:19:00.269Z,2.20
2019-04-22T08:21:23.847Z,3.00
2019-04-22T08:24:01.356Z,2.25
2019-04-22T08:26:32.070Z,2.83
2019-04-22T08:29:05.636Z,4.05
2019-04-22T08:31:38.552Z,2.72
2019-04-22T08:34:08.291Z,2.58
2019-04-22T08:36:41.073Z,1.87
2019-04-22T08:39:14.984Z,2.30
2019-04-22T08:41:37.659Z,2.60
2019-04-22T08:44:07.641Z,2.20
2019-04-22T08:49:10.254Z,2.17
2019-04-22T08:51:42.905Z,2.33
2019-04-22T08:54:26.313Z,2.42
2019-04-22T08:56:55.535Z,2.80
2019-04-22T08:59:21.906Z,2.45
2019-04-22T09:02:00.527Z,2.47
2019-04-22T09:04:27.849Z,2.27
2019-04-22T09:09:34.028Z,2.62
2019-04-22T09:12:07.633Z,2.52
2019-04-22T09:14:38.168Z,3.12
2019-04-22T09:17:13.767Z,2.67
2019-04-22T09:19:38.775Z,2.22
2019-04-22T09:22:12.274Z,2.12
2019-04-22T09:24:40.801Z,2.60
2019-04-22T09:27:18.043Z,2.10
2019-04-22T09:29:44.442Z,2.20
2019-04-22T09:32:19.060Z,2.92
2019-04-22T09:35:03.356Z,2.02
2019-04-22T09:37:30.414Z,2.02
2019-04-22T09:40:02.987Z,1.95
2019-04-22T09:42:27.340Z,2.37
2019-04-22T09:44:55.576Z,2.02
2019-04-22T09:47:33.860Z,2.67
2019-04-22T09:50:18.545Z,2.47
2019-04-22T09:52:37.936Z,1.82
2019-04-22T09:55:07.837Z,1.95
2019-04-22T09:57:32.510Z,1.98
2019-04-22T10:00:10.933Z,2.10
2019-04-22T10:02:41.017Z,2.70
2019-04-22T10:05:11.528Z,2.23
2019-04-22T10:07:39.526Z,2.47
2019-04-22T10:10:15.117Z,2.30
2019-04-22T10:15:15.007Z,2.57
2019-04-22T10:17:54.935Z,2.97
2019-04-22T10:20:25.324Z,2.13
2019-04-22T10:22:52.765Z,2.33
2019-04-22T10:25:27.351Z,2.07
2019-04-22T10:28:01.811Z,2.33
2019-04-22T10:30:33.912Z,2.40
2019-04-22T10:32:59.421Z,2.20
2019-04-22T10:35:15.441Z,1.67
2019-04-22T10:37:42.777Z,1.60
2019-04-22T10:40:30.242Z,2.70
2019-04-22T10:43:01.257Z,2.13
2019-04-22T10:45:32.407Z,1.70
2019-04-22T10:48:03.980Z,2.20
2019-04-22T10:50:43.050Z,2.10
2019-04-22T10:53:15.438Z,2.53
2019-04-22T10:55:47.749Z,1.53
2019-04-22T10:58:18.417Z,1.60
2019-04-22T11:00:50.203Z,1.67
2019-04-22T11:03:20.618Z,1.50
2019-04-22T11:05:53.907Z,2.20
2019-04-22T11:08:31.604Z,2.27
2019-04-22T11:11:12.478Z,1.47
2019-04-22T11:13:28.298Z,2.30
2019-04-22T11:15:58.553Z,1.90
2019-04-22T11:18:29.646Z,2.20
2019-04-22T11:21:01.757Z,1.67
2019-04-22T11:23:32.392Z,2.10
2019-04-22T11:26:03.867Z,1.83
2019-04-22T11:28:33.922Z,1.70
2019-04-22T11:31:04.103Z,2.07
2019-04-22T11:33:34.537Z,2.10
2019-04-22T11:36:05.967Z,1.70
2019-04-22T11:38:37.693Z,1.60
2019-04-22T11:41:09.275Z,2.47
2019-04-22T11:43:39.257Z,1.93
2019-04-22T11:46:09.602Z,2.07
2019-04-22T11:48:51.993Z,1.30
2019-04-22T11:51:24.330Z,1.40
2019-04-22T11:53:54.821Z,1.47
2019-04-22T11:56:25.177Z,1.30
2019-04-22T11:58:55.259Z,1.20
2019-04-22T12:01:26.537Z,1.87
2019-04-22T12:03:58.045Z,1.30
2019-04-22T12:06:28.205Z,1.23
2019-04-22T12:08:59.483Z,1.20
2019-04-22T12:11:30.297Z,2.03
2019-04-22T12:14:00.328Z,1.80
2019-04-22T12:16:31.528Z,1.70
2019-04-22T12:19:03.123Z,1.80
2019-04-22T12:21:33.209Z,2.33
2019-04-22T12:24:03.444Z,1.30
2019-04-22T12:26:34.587Z,1.70
2019-04-22T12:29:07.066Z,1.60
2019-04-22T12:31:37.669Z,1.57
2019-04-22T12:34:07.925Z,1.70
2019-04-22T12:36:38.476Z,1.60
2019-04-22T12:39:09.788Z,1.90
2019-04-22T12:41:40.193Z,1.80
2019-04-22T12:44:11.710Z,2.10
2019-04-22T12:46:42.067Z,2.03
2019-04-22T12:49:12.359Z,2.10
2019-04-22T12:51:42.935Z,1.70
2019-04-22T12:54:13.108Z,1.33
2019-04-22T12:56:44.105Z,1.40
2019-04-22T12:59:14.071Z,1.53
2019-04-22T13:01:44.681Z,1.70
2019-04-22T13:04:17.660Z,1.43
2019-04-22T13:06:48.055Z,1.83
2019-04-22T13:09:19.487Z,1.70
2019-04-22T13:11:51.033Z,1.60
2019-04-22T13:14:21.286Z,1.70
2019-04-22T13:16:51.272Z,1.50
2019-04-22T13:19:24.617Z,1.87
2019-04-22T13:21:54.572Z,1.67
2019-04-22T13:24:25.987Z,2.23
2019-04-22T13:26:57.060Z,1.70
2019-04-22T13:29:27.582Z,2.30
2019-04-22T13:31:58.585Z,1.63
2019-04-22T13:34:34.737Z,1.90
2019-04-22T13:37:01.286Z,1.63
2019-04-22T13:39:31.426Z,1.87
2019-04-22T13:42:05.958Z,1.67
2019-04-22T13:44:35.363Z,1.40
2019-04-22T13:47:20.728Z,2.33
2019-04-22T13:50:14.771Z,1.40
2019-04-22T13:54:06.515Z,1.37
2019-04-22T13:55:13.648Z,2.17
2019-04-22T13:57:34.355Z,1.53
2019-04-22T13:59:58.792Z,1.80
2019-04-22T14:02:39.932Z,1.67
2019-04-22T14:05:13.065Z,1.70
2019-04-22T14:07:43.192Z,2.10
2019-04-22T14:10:14.281Z,2.00
2019-04-22T14:12:44.666Z,1.90
2019-04-22T14:15:15.914Z,2.40
2019-04-22T14:17:47.121Z,1.93
2019-04-22T14:20:18.932Z,1.90
2019-04-22T14:22:48.742Z,1.63
2019-04-22T14:25:18.909Z,2.37
2019-04-22T14:27:56.782Z,1.80
2019-04-22T14:30:21.217Z,2.00
2019-04-22T14:32:51.278Z,2.07
2019-04-22T14:35:22.886Z,2.00
2019-04-22T14:37:54.476Z,2.20
2019-04-22T14:40:28.028Z,1.83
2019-04-22T14:43:23.111Z,2.07
2019-04-22T14:46:04.598Z,1.80
2019-04-22T14:48:31.632Z,2.60
2019-04-22T14:50:51.884Z,1.97
2019-04-22T14:53:21.413Z,2.60
2019-04-22T14:55:36.728Z,2.00
2019-04-22T14:58:06.835Z,1.97
2019-04-22T15:00:38.045Z,2.00
2019-04-22T15:03:08.367Z,1.93
2019-04-22T15:05:39.929Z,2.10
2019-04-22T15:08:10.999Z,1.77
2019-04-22T15:10:42.030Z,1.80
2019-04-22T15:13:13.340Z,1.60
2019-04-22T15:15:51.196Z,1.67
2019-04-22T15:18:26.044Z,1.50
2019-04-22T15:20:58.578Z,1.80
2019-04-22T15:23:28.685Z,1.83
2019-04-22T15:25:59.165Z,1.30
2019-04-22T15:28:29.331Z,1.90
2019-04-22T15:30:59.523Z,2.07
2019-04-22T15:33:29.673Z,3.50
2019-04-22T15:35:59.572Z,2.77
2019-04-22T15:38:30.236Z,2.00
2019-04-22T15:41:00.961Z,1.83
2019-04-22T15:43:35.079Z,2.07
2019-04-22T15:46:04.064Z,1.90
2019-04-22T15:48:36.066Z,2.07
2019-04-22T15:51:06.851Z,1.63
2019-04-22T15:53:37.985Z,2.23
2019-04-22T15:56:08.545Z,2.73
2019-04-22T15:58:39.645Z,1.87
2019-04-22T16:01:17.811Z,1.87
2019-04-22T16:03:42.708Z,1.70
2019-04-22T16:06:13.265Z,2.43
2019-04-22T16:08:43.905Z,2.03
2019-04-22T16:11:14.084Z,1.80
2019-04-22T16:13:44.321Z,2.00
2019-04-22T16:16:14.646Z,1.97
2019-04-22T16:18:46.497Z,2.40
2019-04-22T16:21:26.730Z,2.27
2019-04-22T16:23:50.140Z,2.10
2019-04-22T16:26:40.315Z,1.80
2019-04-22T16:29:13.396Z,1.93
2019-04-22T16:31:43.461Z,1.90
2019-04-22T16:34:13.654Z,2.50
2019-04-22T16:36:44.788Z,2.47
2019-04-22T16:39:15.378Z,2.53
2019-04-22T16:41:46.579Z,2.07
2019-04-22T16:44:16.605Z,2.63
2019-04-22T16:46:47.764Z,2.60
2019-04-22T16:49:19.308Z,1.90
2019-04-22T16:51:50.050Z,2.27
2019-04-22T16:54:22.131Z,2.03
2019-04-22T16:56:52.334Z,2.93
2019-04-22T16:59:22.909Z,2.00
2019-04-22T17:01:54.553Z,1.97
2019-04-22T17:04:30.450Z,2.07
2019-04-22T17:07:01.655Z,2.27
2019-04-22T17:09:32.123Z,2.33
2019-04-22T17:12:03.581Z,2.47
2019-04-22T17:14:41.314Z,2.07
2019-04-22T17:17:06.546Z,2.07
2019-04-22T17:19:37.406Z,1.87
2019-04-22T17:22:07.962Z,1.70
2019-04-22T17:24:39.502Z,1.93
2019-04-22T17:27:10.649Z,2.43
2019-04-22T17:29:41.060Z,2.20
2019-04-22T17:32:14.067Z,1.97
2019-04-22T17:34:43.538Z,2.00
2019-04-22T17:37:19.291Z,1.90
2019-04-22T17:40:02.366Z,2.10
2019-04-22T17:42:39.942Z,2.47
2019-04-22T17:45:22.101Z,1.90
2019-04-22T17:48:09.347Z,2.00
2019-04-22T17:50:48.562Z,2.10
2019-04-22T17:53:21.527Z,1.87
2019-04-22T17:55:49.269Z,2.00
2019-04-22T17:58:20.841Z,1.70
2019-04-22T18:00:47.574Z,2.00
2019-04-22T18:03:14.221Z,1.90
2019-04-22T18:05:40.956Z,2.50
2019-04-22T18:08:25.186Z,2.27
2019-04-22T18:10:54.234Z,2.03
2019-04-22T18:13:36.296Z,1.83
2019-04-22T18:16:02.032Z,1.73
2019-04-22T18:18:30.156Z,1.80
2019-04-22T18:21:00.317Z,1.40
2019-04-22T18:23:20.726Z,2.07
2019-04-22T18:26:05.669Z,2.27
2019-04-22T18:28:39.583Z,2.00
2019-04-22T18:31:02.949Z,1.53
2019-04-22T18:33:41.349Z,1.37
2019-04-22T18:36:09.990Z,2.13
2019-04-22T18:39:04.249Z,1.33
2019-04-22T18:41:12.490Z,1.50
2019-04-22T18:43:47.841Z,1.60
2019-04-22T18:46:21.341Z,1.53
2019-04-22T18:48:54.061Z,1.10
2019-04-22T18:51:29.421Z,1.77
2019-04-22T18:54:00.442Z,1.83
2019-04-22T18:56:37.654Z,1.00
2019-04-22T18:58:53.759Z,1.23
2019-04-22T19:01:15.655Z,1.13
2019-04-22T19:03:57.514Z,1.47
2019-04-22T19:06:49.046Z,1.70
2019-04-22T19:09:17.168Z,1.60
2019-04-22T19:11:55.649Z,1.60
2019-04-22T19:14:35.063Z,1.63
2019-04-22T19:16:45.607Z,1.30
2019-04-22T19:19:30.423Z,1.70
2019-04-22T19:21:49.494Z,1.97
2019-04-22T19:24:14.974Z,2.00
2019-04-22T19:29:25.616Z,1.63
2019-04-22T19:31:57.350Z,2.20
2019-04-22T19:34:25.295Z,1.50
2019-04-22T19:37:05.536Z,1.33
2019-04-22T19:39:28.730Z,2.00
2019-04-22T19:42:12.442Z,2.57
2019-04-22T19:44:39.481Z,2.00
2019-04-22T19:49:45.432Z,2.20
2019-04-22T19:54:43.994Z,2.17
2019-04-22T19:57:14.616Z,1.97
2019-04-22T19:59:46.499Z,2.30
2019-04-22T20:02:24.750Z,2.00
2019-04-22T20:05:11.128Z,1.83
2019-04-22T20:07:38.124Z,2.43
2019-04-22T20:10:17.235Z,2.83
2019-04-22T20:12:42.780Z,2.77
2019-04-22T20:15:14.184Z,2.27
2019-04-22T20:18:19.226Z,2.73
2019-04-22T20:20:27.230Z,2.67
2019-04-22T20:22:52.463Z,2.43
2019-04-22T20:25:15.334Z,2.77
2019-04-22T20:28:01.293Z,2.50
2019-04-22T20:30:34.547Z,3.00
2019-04-22T20:32:59.224Z,2.60
2019-04-22T20:35:41.849Z,2.80
2019-04-22T20:38:08.748Z,3.13
2019-04-22T20:40:41.437Z,2.87
2019-04-22T20:43:17.613Z,3.73
2019-04-22T20:45:46.646Z,3.70
2019-04-22T20:48:06.045Z,3.33
2019-04-22T20:50:47.938Z,3.17
2019-04-22T20:53:25.399Z,2.80
2019-04-22T20:55:57.077Z,3.13
2019-04-22T20:58:21.306Z,2.67
2019-04-22T21:00:46.462Z,3.07
2019-04-22T21:03:18.015Z,3.23
2019-04-22T21:05:48.227Z,4.13
2019-04-22T21:08:33.843Z,4.27
2019-04-22T21:10:53.448Z,3.10
2019-04-22T21:13:28.048Z,3.33
2019-04-22T21:16:12.258Z,3.97
2019-04-22T21:18:32.159Z,3.27
2019-04-22T21:21:07.116Z,3.77
2019-04-22T21:23:33.915Z,3.83
2019-04-22T21:26:14.621Z,4.40
2019-04-22T21:28:44.326Z,3.40
2019-04-22T21:31:19.264Z,3.80
2019-04-22T21:33:48.798Z,5.33
2019-04-22T21:36:24.985Z,4.23
2019-04-22T21:38:48.478Z,3.17
2019-04-22T21:41:23.046Z,3.40
2019-04-22T21:43:54.782Z,3.97
2019-04-22T21:46:23.903Z,3.83
2019-04-22T21:49:00.217Z,3.33
2019-04-22T21:51:31.185Z,3.10
2019-04-22T21:54:05.099Z,5.03
2019-04-22T21:59:18.450Z,4.80
2019-04-22T22:01:55.496Z,4.73
2019-04-22T22:04:21.997Z,4.57
2019-04-22T22:06:41.243Z,5.00
2019-04-22T22:09:31.140Z,5.27
2019-04-22T22:11:57.475Z,4.30
2019-04-22T22:14:31.683Z,5.20
2019-04-22T22:17:00.175Z,4.47
2019-04-22T22:19:39.702Z,4.70
2019-04-22T22:22:15.228Z,4.50
2019-04-22T22:24:46.440Z,4.10
2019-04-22T22:27:25.052Z,5.13
2019-04-22T22:30:15.969Z,4.83
2019-04-22T22:32:29.686Z,4.70
2019-04-22T22:35:03.014Z,4.30
2019-04-22T22:37:21.914Z,4.73
2019-04-22T22:39:51.413Z,3.97
2019-04-22T22:42:22.446Z,3.67
2019-04-22T22:44:52.632Z,4.67
2019-04-22T22:47:38.302Z,4.63
2019-04-22T22:50:12.552Z,3.70
2019-04-22T22:55:10.921Z,4.67
2019-04-22T22:57:44.436Z,4.87
2019-04-22T23:00:18.440Z,4.10
2019-04-22T23:03:00.770Z,5.17
2019-04-22T23:05:27.145Z,5.00
2019-04-22T23:07:57.172Z,4.07
2019-04-22T23:10:24.869Z,4.43
2019-04-22T23:15:35.892Z,4.40
2019-04-22T23:17:49.887Z,4.73
2019-04-22T23:20:28.971Z,3.90
2019-04-22T23:23:13.785Z,5.27
2019-04-22T23:25:48.148Z,4.67
2019-04-22T23:28:19.263Z,4.33
2019-04-22T23:30:59.448Z,4.17
2019-04-22T23:33:58.638Z,4.17
2019-04-22T23:36:37.918Z,4.63
2019-04-22T23:39:15.707Z,5.03
2019-04-22T23:41:51.073Z,4.87
2019-04-22T23:44:26.948Z,5.03
2019-04-22T23:46:56.845Z,5.20
2019-04-22T23:49:26.677Z,4.53
2019-04-22T23:52:19.259Z,5.63
2019-04-22T23:54:40.920Z,4.17
2019-04-22T23:57:02.044Z,4.13
